Reynosa, TAM, Mexico
Current Conditions -  °F | °C
As of 7:41 AM on Friday 19 Dec 2014 (Local Time) from MMRX Reporting Station
Haze Haze  
Wind Chill: 61°   Ceiling: 300
Heat Index: 61°   Visibility: 1mi
Dew Point: 59°   Wind: 3mph
Humidity: 94%   Direction: 300°WNW
Pressure: 29.98"   Gusts: NA
Location:  26.08°N, 98.28°W
Report Text: MMRX 191341Z 30003KT 1SM BR HZ BKN003 OVC006 16/15 A2998 RMK 8/7// -DZ OCNL VC LWR SF
Loading
Personal Weather Stations






























Interactive Weather Map New forecast layout! Learn more

10-Day Weather Forecast

Advertisements
Track Severe Weather on mobile